Andover, OH

7:47 PM EDT on October 01, 2014 (GMT -0400)
Route 7 Near Downtown Pierpont | Change Station
CLOSE
Current Station
Personal Weather Station
Location: Pierpont, OH
Elevation: 1043 ft
Nearby Weather Stations

Elev 1043 ft 41.73 °N, 80.60 °W | Updated 10 seconds ago

Clear
Clear
59.2 °F
Feels Like 59.2 °F
N
0.0
Wind Variable Wind from North
Gusts 0.0 mph

Today
High -- | Low -- °F
--% Chance of Precip.
Yesterday
High -- | Low -- °F
Precip. -- in
7:19 AM 7:04 PM
First Quarter, 52% visible
Pressure 29.96 in
Visibility 10.0 miles
Clouds Few 2000 ft
Dew Point 58 °F
Humidity 97%
Rainfall 0.00 in
Snow Depth Not available.
UV 0 out of 12
Pollen 1.90 out of 12
Ozone Unhealthy for Sensitive Groups
PM2.5 Moderate
Flu Activity Not available.
METAR KHZY 302353Z AUTO 00000KT 10SM FEW020 13/12 A2997 RMK AO2 SLP146 T01330122 10189 20133 53012

More Conditions Fewer Conditions

Pressure 29.96 in
Visibility 10.0 miles
Clouds Few 2000 ft
Dew Point 58 °F
Humidity 97%
Rainfall 0.00 in
Snow Depth Not available.
UV 0 out of 12
Pollen 1.90 out of 12
Ozone Unhealthy for Sensitive Groups
PM2.5 Moderate
Flu Activity Not available.
METAR KHZY 302353Z AUTO 00000KT 10SM FEW020 13/12 A2997 RMK AO2 SLP146 T01330122 10189 20133 53012

More Conditions Fewer Conditions

10-Day Weather Forecast

Almanac

Astronomy

Oct. 01, 2014 Rise Set
Actual Time 7:19 AM EDT 7:04 PM EDT
Civil Twilight 6:51 AM EDT 7:31 PM EDT
Nautical Twilight 6:19 AM EDT 8:03 PM EDT
Astronomical Twilight 5:46 AM EDT 8:36 PM EDT
Moon 2:22 PM EDT No Moon Set
Length of Visible Light 12h 40m
Length of Day
11h 44m
Tomorrow will be 2m 45s shorter.
First Quarter, 52% of the Moon is Illuminated
Today
First Quarter
Oct 8
Full
Oct 15
Last Quarter
Oct 23
New
Oct 30
First Quarter

Today's Extremes

State Highs State Lows

Community

WunderPhotos

Upload Photos

1,758,084 photos uploaded!

WunderBlogs® & News

By Dr. Jeff Masters
Director of Meteorology, Weather Underground
By Kari Strenfel
Meteorologist, Weather Underground
By Christopher C. Burt
Weather Historian, Weather Underground
October 1, 2014
October 1, 2014
October 1, 2014

Nearby

Air Quality

  Air Quality AQ Index Pollutant
Yesterday Good
OZONE
Yesterday Good
PM10
Current Unhealthy for Sensitive Groups
OZONE
Current Moderate
PM2.5
Wednesday Moderate
PM2.5
Wednesday Good
OZONE
Thursday Moderate
PM2.5
Thursday Good
OZONE

Snow Depth

Station Depth Elevation
No new snow has been reported.

Earthquake Activity

City Distance Mag. Time & Date
No recent earthquake activity has been reported nearby.
Minimum magnitude displayed is 2.5.

Coastal Water Temperatures

Place Temperature
Fairport, OH 66.9 °F
Cleveland, OH 66.0 °F

Nearby Weather Stations